Time,TemperatureF,DewpointF,PressureIn,WindDirection,WindDirectionDegrees,WindSpeedMPH,WindSpeedGustMPH,Humidity,HourlyPrecipIn,Conditions,Clouds,dailyrainin,SoftwareType,DateUTC
2013-05-13 00:01:00,87.0,41.0,29.89,NNE,25,1.0,5.0,20,0.00,,,-99.99,,2013-05-13 07:01:00,
2013-05-13 00:11:00,87.0,41.0,29.89,NNE,25,1.0,5.0,20,0.00,,,-99.99,,2013-05-13 07:11:00,
2013-05-13 00:21:00,87.0,41.0,29.90,WNW,291,1.0,4.0,20,0.00,,,-99.99,,2013-05-13 07:21:00,
2013-05-13 00:31:00,86.0,39.0,29.90,NW,326,1.0,4.0,19,0.00,,,-99.99,,2013-05-13 07:31:00,
2013-05-13 00:41:00,85.0,39.0,29.89,WNW,301,1.0,4.0,20,0.00,,,-99.99,,2013-05-13 07:41:00,
2013-05-13 00:52:00,85.0,39.0,29.89,WNW,301,1.0,4.0,20,0.00,,,-99.99,,2013-05-13 07:52:00,
2013-05-13 01:01:00,84.0,39.0,29.89,North,5,1.0,4.0,20,0.00,,,-99.99,,2013-05-13 08:01:00,
2013-05-13 01:11:00,85.0,39.0,29.89,NW,311,1.0,4.0,20,0.00,,,-99.99,,2013-05-13 08:11:00,
2013-05-13 01:21:00,85.0,39.0,29.89,NW,311,1.0,4.0,20,0.00,,,-99.99,,2013-05-13 08:21:00,
2013-05-13 01:31:00,83.0,38.0,29.89,North,359,1.0,2.0,20,0.00,,,-99.99,,2013-05-13 08:31:00,
2013-05-13 01:41:00,83.0,38.0,29.89,North,359,1.0,2.0,20,0.00,,,-99.99,,2013-05-13 08:41:00,
2013-05-13 01:52:00,82.0,38.0,29.89,NNW,348,1.0,2.0,21,0.00,,,-99.99,,2013-05-13 08:52:00,
2013-05-13 02:01:00,81.0,40.0,29.88,NNW,347,0.0,2.0,23,0.00,,,-99.99,,2013-05-13 09:01:00,
2013-05-13 02:11:00,81.0,39.0,29.88,NE,40,1.0,3.0,22,0.00,,,-99.99,,2013-05-13 09:11:00,
2013-05-13 02:21:00,81.0,39.0,29.88,NE,40,1.0,3.0,22,0.00,,,-99.99,,2013-05-13 09:21:00,
2013-05-13 02:32:00,81.0,37.0,29.88,NNW,335,0.0,3.0,21,0.00,,,-99.99,,2013-05-13 09:32:00,
2013-05-13 02:42:00,81.0,37.0,29.88,NNW,335,0.0,3.0,21,0.00,,,-99.99,,2013-05-13 09:42:00,
2013-05-13 02:52:00,81.0,39.0,29.88,NNW,333,0.0,3.0,22,0.00,,,-99.99,,2013-05-13 09:52:00,
2013-05-13 03:02:00,79.0,38.0,29.87,NNW,329,0.0,0.0,23,0.00,,,-99.99,,2013-05-13 10:02:00,
2013-05-13 03:12:00,79.0,38.0,29.87,WNW,298,0.0,1.0,23,0.00,,,-99.99,,2013-05-13 10:12:00,
2013-05-13 03:22:00,79.0,38.0,29.87,WNW,298,0.0,1.0,23,0.00,,,-99.99,,2013-05-13 10:22:00,
2013-05-13 03:32:00,79.0,37.0,29.87,NNW,348,0.0,2.0,22,0.00,,,-99.99,,2013-05-13 10:32:00,
2013-05-13 03:42:00,79.0,37.0,29.87,NNW,348,0.0,2.0,22,0.00,,,-99.99,,2013-05-13 10:42:00,
2013-05-13 03:52:00,79.0,37.0,29.88,NW,312,1.0,2.0,22,0.00,,,-99.99,,2013-05-13 10:52:00,
2013-05-13 04:02:00,79.0,37.0,29.88,West,259,1.0,3.0,22,0.00,,,-99.99,,2013-05-13 11:02:00,
2013-05-13 04:12:00,79.0,37.0,29.87,NW,323,1.0,2.0,22,0.00,,,-99.99,,2013-05-13 11:12:00,
2013-05-13 04:21:00,79.0,37.0,29.87,NW,323,1.0,2.0,22,0.00,,,-99.99,,2013-05-13 11:21:00,
2013-05-13 04:31:00,78.0,35.0,29.87,NNW,344,0.0,2.0,21,0.00,,,-99.99,,2013-05-13 11:31:00,
2013-05-13 04:41:00,78.0,35.0,29.87,NNW,344,0.0,2.0,21,0.00,,,-99.99,,2013-05-13 11:41:00,
2013-05-13 04:52:00,78.0,35.0,29.87,NW,321,0.0,1.0,21,0.00,,,-99.99,,2013-05-13 11:52:00,
2013-05-13 05:01:00,79.0,37.0,29.87,NW,316,0.0,3.0,22,0.00,,,-99.99,,2013-05-13 12:01:00,
2013-05-13 05:11:00,79.0,37.0,29.87,NW,316,0.0,3.0,22,0.00,,,-99.99,,2013-05-13 12:11:00,
2013-05-13 05:21:00,78.0,37.0,29.88,NW,305,0.0,1.0,23,0.00,,,-99.99,,2013-05-13 12:21:00,
2013-05-13 05:32:00,77.0,37.0,29.88,West,278,0.0,1.0,24,0.00,,,-99.99,,2013-05-13 12:32:00,
2013-05-13 05:41:00,77.0,37.0,29.88,West,278,0.0,1.0,24,0.00,,,-99.99,,2013-05-13 12:41:00,
2013-05-13 05:52:00,75.0,39.0,29.89,WNW,285,1.0,5.0,27,0.00,,,-99.99,,2013-05-13 12:52:00,
2013-05-13 06:01:00,74.0,38.0,29.89,West,280,0.0,5.0,27,0.00,,,-99.99,,2013-05-13 13:01:00,
2013-05-13 06:11:00,74.0,35.0,29.90,West,259,2.0,5.0,24,0.00,,,-99.99,,2013-05-13 13:11:00,
2013-05-13 06:21:00,74.0,35.0,29.90,West,259,2.0,5.0,24,0.00,,,-99.99,,2013-05-13 13:21:00,
2013-05-13 06:31:00,76.0,32.0,29.91,NNW,340,2.0,4.0,20,0.00,,,-99.99,,2013-05-13 13:31:00,
2013-05-13 06:41:00,77.0,33.0,29.91,West,281,0.0,2.0,20,0.00,,,-99.99,,2013-05-13 13:41:00,
2013-05-13 06:52:00,77.0,33.0,29.91,West,281,0.0,2.0,20,0.00,,,-99.99,,2013-05-13 13:52:00,
2013-05-13 07:01:00,80.0,33.0,29.91,WNW,295,0.0,2.0,18,0.00,,,-99.99,,2013-05-13 14:01:00,
2013-05-13 07:11:00,80.0,33.0,29.91,WNW,295,0.0,2.0,18,0.00,,,-99.99,,2013-05-13 14:11:00,
2013-05-13 07:21:00,80.0,35.0,29.92,West,273,0.0,1.0,20,0.00,,,-99.99,,2013-05-13 14:21:00,
2013-05-13 07:31:00,81.0,35.0,29.92,West,269,0.0,2.0,19,0.00,,,-99.99,,2013-05-13 14:31:00,
2013-05-13 07:41:00,82.0,37.0,29.92,West,259,0.0,2.0,20,0.00,,,-99.99,,2013-05-13 14:41:00,
2013-05-13 07:51:00,82.0,37.0,29.92,West,259,0.0,2.0,20,0.00,,,-99.99,,2013-05-13 14:51:00,
2013-05-13 08:01:00,84.0,36.0,29.92,West,263,0.0,2.0,18,0.00,,,-99.99,,2013-05-13 15:01:00,
2013-05-13 08:11:00,87.0,38.0,29.92,WSW,253,0.0,0.0,18,0.00,,,-99.99,,2013-05-13 15:11:00,
2013-05-13 08:21:00,87.0,38.0,29.92,WSW,253,0.0,0.0,18,0.00,,,-99.99,,2013-05-13 15:21:00,
2013-05-13 08:31:00,90.0,39.0,29.92,NW,310,0.0,0.0,17,0.00,,,-99.99,,2013-05-13 15:31:00,
2013-05-13 08:42:00,93.0,38.0,29.91,SSW,198,0.0,0.0,15,0.00,,,-99.99,,2013-05-13 15:42:00,
2013-05-13 08:53:00,93.0,38.0,29.91,SSW,198,0.0,0.0,15,0.00,,,-99.99,,2013-05-13 15:53:00,
2013-05-13 09:03:00,96.0,37.0,29.92,WSW,256,0.0,0.0,13,0.00,,,-99.99,,2013-05-13 16:03:00,
2013-05-13 09:11:00,99.0,37.0,29.91,SW,233,0.0,0.0,12,0.00,,,-99.99,,2013-05-13 16:11:00,
2013-05-13 09:21:00,99.0,37.0,29.91,SW,233,0.0,0.0,12,0.00,,,-99.99,,2013-05-13 16:21:00,
2013-05-13 09:33:00,100.0,38.0,29.91,WSW,240,0.0,1.0,12,0.00,,,-99.99,,2013-05-13 16:33:00,
2013-05-13 09:42:00,100.0,36.0,29.91,SW,229,0.0,3.0,11,0.00,,,-99.99,,2013-05-13 16:42:00,
2013-05-13 09:52:00,100.0,36.0,29.91,SW,229,0.0,3.0,11,0.00,,,-99.99,,2013-05-13 16:52:00,
2013-05-13 10:02:00,101.0,37.0,29.91,SW,214,1.0,3.0,11,0.00,,,-99.99,,2013-05-13 17:02:00,
2013-05-13 10:11:00,101.0,37.0,29.91,SW,214,1.0,3.0,11,0.00,,,-99.99,,2013-05-13 17:11:00,
2013-05-13 10:21:00,101.0,34.0,29.91,SE,128,1.0,3.0,10,0.00,,,-99.99,,2013-05-13 17:21:00,
2013-05-13 10:32:00,101.0,41.0,29.91,NNE,15,1.0,5.0,13,0.00,,,-99.99,,2013-05-13 17:32:00,
2013-05-13 10:41:00,101.0,39.0,29.91,North,6,1.0,4.0,12,0.00,,,-99.99,,2013-05-13 17:41:00,
2013-05-13 10:54:00,101.0,39.0,29.91,North,6,1.0,4.0,12,0.00,,,-99.99,,2013-05-13 17:54:00,
2013-05-13 11:03:00,101.0,39.0,29.91,East,86,3.0,5.0,12,0.00,,,-99.99,,2013-05-13 18:03:00,
2013-05-13 11:12:00,102.0,38.0,29.91,ESE,115,3.0,4.0,11,0.00,,,-99.99,,2013-05-13 18:12:00,
2013-05-13 11:22:00,102.0,38.0,29.91,ESE,115,3.0,4.0,11,0.00,,,-99.99,,2013-05-13 18:22:00,
2013-05-13 11:32:00,102.0,35.0,29.90,NW,325,1.0,6.0,10,0.00,,,-99.99,,2013-05-13 18:32:00,
2013-05-13 11:42:00,103.0,36.0,29.90,SW,224,2.0,5.0,10,0.00,,,-99.99,,2013-05-13 18:42:00,
2013-05-13 11:51:00,103.0,36.0,29.90,SW,224,2.0,5.0,10,0.00,,,-99.99,,2013-05-13 18:51:00,
2013-05-13 12:01:00,104.0,34.0,29.90,North,5,2.0,6.0,9,0.00,,,-99.99,,2013-05-13 19:01:00,
2013-05-13 12:11:00,106.0,35.0,29.89,South,191,0.0,3.0,9,0.00,,,-99.99,,2013-05-13 19:11:00,
2013-05-13 12:21:00,106.0,35.0,29.89,South,191,0.0,3.0,9,0.00,,,-99.99,,2013-05-13 19:21:00,
2013-05-13 12:32:00,105.0,32.0,29.89,East,80,1.0,3.0,8,0.00,,,-99.99,,2013-05-13 19:32:00,
2013-05-13 12:43:00,105.0,35.0,29.88,SSE,153,2.0,6.0,9,0.00,,,-99.99,,2013-05-13 19:43:00,
2013-05-13 12:53:00,105.0,35.0,29.88,SSE,153,2.0,6.0,9,0.00,,,-99.99,,2013-05-13 19:53:00,
2013-05-13 13:01:00,105.0,35.0,29.88,SE,127,1.0,10.0,9,0.00,,,-99.99,,2013-05-13 20:01:00,
2013-05-13 13:11:00,106.0,33.0,29.87,SE,128,4.0,8.0,8,0.00,,,-99.99,,2013-05-13 20:11:00,
2013-05-13 13:23:00,106.0,33.0,29.87,SE,128,4.0,8.0,8,0.00,,,-99.99,,2013-05-13 20:23:00,
2013-05-13 13:33:00,106.0,33.0,29.86,ESE,121,2.0,7.0,8,0.00,,,-99.99,,2013-05-13 20:33:00,
2013-05-13 13:44:00,107.0,33.0,29.85,East,95,1.0,6.0,8,0.00,,,-99.99,,2013-05-13 20:44:00,
2013-05-13 13:53:00,107.0,33.0,29.85,East,95,1.0,6.0,8,0.00,,,-99.99,,2013-05-13 20:53:00,
2013-05-13 14:02:00,107.0,30.0,29.85,ESE,115,2.0,6.0,7,0.00,,,-99.99,,2013-05-13 21:02:00,
2013-05-13 14:14:00,108.0,34.0,29.84,WSW,249,3.0,9.0,8,0.00,,,-99.99,,2013-05-13 21:14:00,
2013-05-13 14:22:00,108.0,34.0,29.84,WSW,249,3.0,9.0,8,0.00,,,-99.99,,2013-05-13 21:22:00,
2013-05-13 14:33:00,109.0,38.0,29.83,NW,322,1.0,6.0,9,0.00,,,-99.99,,2013-05-13 21:33:00,
2013-05-13 14:43:00,109.0,38.0,29.83,NW,322,1.0,6.0,9,0.00,,,-99.99,,2013-05-13 21:43:00,
2013-05-13 14:53:00,109.0,35.0,29.83,NW,304,3.0,6.0,8,0.00,,,-99.99,,2013-05-13 21:53:00,
2013-05-13 15:02:00,108.0,34.0,29.82,SE,124,2.0,7.0,8,0.00,,,-99.99,,2013-05-13 22:02:00,
2013-05-13 15:12:00,108.0,34.0,29.82,SE,124,2.0,7.0,8,0.00,,,-99.99,,2013-05-13 22:12:00,
2013-05-13 15:22:00,108.0,31.0,29.81,SE,134,1.0,8.0,7,0.00,,,-99.99,,2013-05-13 22:22:00,
2013-05-13 15:32:00,108.0,31.0,29.80,ESE,102,2.0,6.0,7,0.00,,,-99.99,,2013-05-13 22:32:00,
2013-05-13 15:42:00,109.0,31.0,29.80,East,98,3.0,6.0,7,0.00,,,-99.99,,2013-05-13 22:42:00,
2013-05-13 15:52:00,109.0,31.0,29.80,East,98,3.0,6.0,7,0.00,,,-99.99,,2013-05-13 22:52:00,
2013-05-13 16:01:00,108.0,31.0,29.79,ESE,115,3.0,8.0,7,0.00,,,-99.99,,2013-05-13 23:01:00,
2013-05-13 16:12:00,109.0,31.0,29.78,ENE,77,2.0,4.0,7,0.00,,,-99.99,,2013-05-13 23:12:00,
2013-05-13 16:23:00,109.0,31.0,29.78,ENE,77,2.0,4.0,7,0.00,,,-99.99,,2013-05-13 23:23:00,
2013-05-13 16:33:00,109.0,28.0,29.78,SSW,196,2.0,4.0,6,0.00,,,-99.99,,2013-05-13 23:33:00,
2013-05-13 16:42:00,108.0,31.0,29.78,SE,124,2.0,7.0,7,0.00,,,-99.99,,2013-05-13 23:42:00,
2013-05-13 16:53:00,108.0,31.0,29.78,SE,124,2.0,7.0,7,0.00,,,-99.99,,2013-05-13 23:53:00,
2013-05-13 17:02:00,108.0,31.0,29.77,SSE,158,2.0,6.0,7,0.00,,,-99.99,,2013-05-14 00:02:00,
2013-05-13 17:12:00,108.0,31.0,29.77,SE,146,1.0,8.0,7,0.00,,,-99.99,,2013-05-14 00:12:00,
2013-05-13 17:22:00,108.0,31.0,29.77,SE,146,1.0,8.0,7,0.00,,,-99.99,,2013-05-14 00:22:00,
2013-05-13 17:31:00,107.0,30.0,29.76,East,89,1.0,7.0,7,0.00,,,-99.99,,2013-05-14 00:31:00,
2013-05-13 17:41:00,107.0,30.0,29.76,East,89,1.0,7.0,7,0.00,,,-99.99,,2013-05-14 00:41:00,
2013-05-13 17:51:00,106.0,29.0,29.76,NE,46,2.0,4.0,7,0.00,,,-99.99,,2013-05-14 00:51:00,
2013-05-13 18:01:00,106.0,29.0,29.76,ESE,121,2.0,5.0,7,0.00,,,-99.99,,2013-05-14 01:01:00,
2013-05-13 18:11:00,106.0,29.0,29.76,ESE,121,2.0,5.0,7,0.00,,,-99.99,,2013-05-14 01:11:00,
2013-05-13 18:21:00,106.0,33.0,29.75,East,96,1.0,5.0,8,0.00,,,-99.99,,2013-05-14 01:21:00,
2013-05-13 18:31:00,105.0,35.0,29.75,West,281,7.0,14.0,9,0.00,,,-99.99,,2013-05-14 01:31:00,
2013-05-13 18:43:00,105.0,35.0,29.75,West,281,7.0,14.0,9,0.00,,,-99.99,,2013-05-14 01:43:00,
2013-05-13 18:53:00,104.0,39.0,29.75,WNW,297,3.0,12.0,11,0.00,,,-99.99,,2013-05-14 01:53:00,
2013-05-13 19:01:00,103.0,38.0,29.75,NNW,329,5.0,15.0,11,0.00,,,-99.99,,2013-05-14 02:01:00,
2013-05-13 19:11:00,101.0,39.0,29.76,West,263,6.0,16.0,12,0.00,,,-99.99,,2013-05-14 02:11:00,
2013-05-13 19:21:00,101.0,39.0,29.76,West,263,6.0,16.0,12,0.00,,,-99.99,,2013-05-14 02:21:00,
2013-05-13 19:31:00,100.0,38.0,29.75,North,353,7.0,16.0,12,0.00,,,-99.99,,2013-05-14 02:31:00,
2013-05-13 19:42:00,100.0,38.0,29.75,North,353,7.0,16.0,12,0.00,,,-99.99,,2013-05-14 02:42:00,
2013-05-13 19:52:00,100.0,38.0,29.76,NNW,329,9.0,20.0,12,0.00,,,-99.99,,2013-05-14 02:52:00,
2013-05-13 20:01:00,99.0,37.0,29.76,WNW,290,7.0,14.0,12,0.00,,,-99.99,,2013-05-14 03:01:00,
2013-05-13 20:11:00,98.0,35.0,29.77,NW,316,6.0,16.0,11,0.00,,,-99.99,,2013-05-14 03:11:00,
2013-05-13 20:21:00,98.0,35.0,29.77,NW,316,6.0,16.0,11,0.00,,,-99.99,,2013-05-14 03:21:00,
2013-05-13 20:32:00,98.0,32.0,29.77,West,277,3.0,12.0,10,0.00,,,-99.99,,2013-05-14 03:32:00,
2013-05-13 20:42:00,98.0,32.0,29.77,West,277,3.0,12.0,10,0.00,,,-99.99,,2013-05-14 03:42:00,
2013-05-13 20:53:00,98.0,32.0,29.78,West,269,2.0,9.0,10,0.00,,,-99.99,,2013-05-14 03:53:00,
2013-05-13 21:02:00,98.0,32.0,29.79,WSW,240,5.0,15.0,10,0.00,,,-99.99,,2013-05-14 04:02:00,
2013-05-13 21:12:00,98.0,32.0,29.79,WSW,240,5.0,15.0,10,0.00,,,-99.99,,2013-05-14 04:12:00,
2013-05-13 21:22:00,97.0,31.0,29.79,West,274,2.0,8.0,10,0.00,,,-99.99,,2013-05-14 04:22:00,
2013-05-13 21:32:00,97.0,31.0,29.79,WNW,301,5.0,11.0,10,0.00,,,-99.99,,2013-05-14 04:32:00,
2013-05-13 21:42:00,97.0,31.0,29.79,WNW,301,5.0,11.0,10,0.00,,,-99.99,,2013-05-14 04:42:00,
2013-05-13 21:53:00,97.0,31.0,29.80,NW,325,3.0,11.0,10,0.00,,,-99.99,,2013-05-14 04:53:00,
2013-05-13 22:01:00,97.0,34.0,29.80,WNW,292,5.0,12.0,11,0.00,,,-99.99,,2013-05-14 05:01:00,
2013-05-13 22:11:00,96.0,31.0,29.80,WSW,253,4.0,11.0,10,0.00,,,-99.99,,2013-05-14 05:11:00,
2013-05-13 22:21:00,96.0,31.0,29.80,WSW,253,4.0,11.0,10,0.00,,,-99.99,,2013-05-14 05:21:00,
2013-05-13 22:32:00,97.0,31.0,29.80,SW,222,3.0,14.0,10,0.00,,,-99.99,,2013-05-14 05:32:00,
2013-05-13 22:42:00,96.0,33.0,29.81,WNW,288,3.0,11.0,11,0.00,,,-99.99,,2013-05-14 05:42:00,
2013-05-13 22:52:00,96.0,33.0,29.81,WNW,288,3.0,11.0,11,0.00,,,-99.99,,2013-05-14 05:52:00,
2013-05-13 23:01:00,95.0,34.0,29.80,WNW,283,2.0,9.0,12,0.00,,,-99.99,,2013-05-14 06:01:00,
2013-05-13 23:12:00,95.0,34.0,29.80,WNW,283,2.0,9.0,12,0.00,,,-99.99,,2013-05-14 06:12:00,
2013-05-13 23:21:00,94.0,34.0,29.80,West,264,2.0,8.0,12,0.00,,,-99.99,,2013-05-14 06:21:00,
2013-05-13 23:31:00,92.0,38.0,29.80,West,266,4.0,8.0,15,0.00,,,-99.99,,2013-05-14 06:31:00,
2013-05-13 23:42:00,91.0,37.0,29.80,NW,304,5.0,11.0,15,0.00,,,-99.99,,2013-05-14 06:42:00,
2013-05-13 23:52:00,91.0,37.0,29.80,NW,304,5.0,11.0,15,0.00,,,-99.99,,2013-05-14 06:52:00,